CDT,Max TemperatureF,Mean TemperatureF,Min TemperatureF,Max Dew PointF,MeanDew PointF,Min DewpointF,Max Humidity, Mean Humidity, Min Humidity, Max Sea Level PressureIn, Mean Sea Level PressureIn, Min Sea Level PressureIn, Max VisibilityMiles, Mean VisibilityMiles, Min VisibilityMiles, Max Wind SpeedMPH, Mean Wind SpeedMPH, Max Gust SpeedMPH,PrecipitationIn, CloudCover, Events, WindDirDegrees
2013-7-1,82,66,50,57,52,47,89,61,33,30.21,30.15,30.11,10,8,5,17,7,21,0.00,0,,8
2013-7-2,83,69,55,59,55,51,93,64,34,30.17,30.12,30.06,10,8,6,18,3,21,T,2,Rain,342
2013-7-3,87,71,55,59,54,48,93,60,27,30.07,30.01,29.94,10,8,5,14,3,17,0.00,0,,197
2013-7-4,87,72,56,59,54,51,80,55,30,29.98,29.93,29.86,10,10,4,22,10,28,0.00,0,,174
2013-7-5,89,76,63,63,59,55,78,58,38,29.91,29.86,29.80,10,9,7,23,13,30,T,1,Rain,167
2013-7-6,88,79,69,66,62,56,64,56,48,29.84,29.81,29.76,10,9,7,26,15,32,0.00,0,,169
2013-7-7,94,83,72,69,63,59,73,55,36,29.88,29.82,29.79,10,9,7,21,10,29,0.00,1,,197
2013-7-8,90,83,75,71,68,62,82,65,47,29.96,29.91,29.86,10,10,9,20,10,24,T,1,,183
2013-7-9,98,87,75,72,68,63,74,57,40,29.94,29.87,29.82,10,10,10,25,7,35,T,0,Rain,81
2013-7-10,87,77,66,68,64,61,84,65,45,30.08,30.02,29.94,10,10,9,15,8,22,T,1,Rain-Thunderstorm,22
2013-7-11,89,77,65,62,59,56,87,62,36,30.11,30.02,29.93,10,10,9,18,10,24,0.00,0,,146
2013-7-12,95,83,70,69,64,57,68,56,44,29.97,29.92,29.86,10,10,10,24,15,30,0.00,1,,155
2013-7-13,96,86,76,71,68,66,69,54,39,29.94,29.91,29.87,10,10,8,25,15,31,T,1,,153
2013-7-14,88,80,72,67,61,56,73,54,34,30.13,30.02,29.94,10,10,10,20,11,25,T,2,Rain-Thunderstorm,135
2013-7-15,91,76,60,65,62,58,90,65,40,30.19,30.14,30.10,10,9,6,17,7,23,0.00,1,,112
2013-7-16,91,79,66,65,62,59,87,63,38,30.25,30.20,30.17,10,10,9,18,7,23,0.00,1,,186
2013-7-17,93,81,68,66,65,63,90,66,41,30.30,30.23,30.15,10,10,7,16,6,21,0.00,0,,194
2013-7-18,95,82,69,68,65,63,84,61,38,30.15,30.04,29.91,10,10,10,24,12,31,0.00,0,,194
2013-7-19,96,84,71,67,63,57,73,53,33,29.93,29.90,29.86,10,10,10,18,7,25,0.00,1,,289
2013-7-20,90,78,65,66,61,51,87,57,27,29.98,29.91,29.84,10,10,10,16,7,20,0.00,1,,88
2013-7-21,92,80,68,69,66,64,87,64,41,29.92,29.83,29.75,10,10,10,16,7,20,0.00,1,Thunderstorm,237
2013-7-22,97,82,67,72,67,61,93,64,35,29.83,29.77,29.73,10,10,6,17,7,41,0.00,0,,185
2013-7-23,82,73,64,65,62,61,87,69,51,30.04,29.93,29.83,10,9,2,37,9,44,0.28,4,Rain-Thunderstorm,31
2013-7-24,88,74,59,61,60,57,93,68,42,30.11,30.04,30.00,10,10,10,12,6,16,0.00,0,,22
2013-7-25,82,74,66,67,63,61,90,73,55,30.03,30.01,29.99,10,10,10,18,7,23,T,3,,190
2013-7-26,81,68,55,67,57,47,93,63,32,30.12,30.06,29.97,10,9,2,23,11,30,0.00,1,,352
2013-7-27,76,64,52,51,46,41,86,59,31,30.16,30.09,30.02,10,10,10,16,5,22,0.00,1,,357
2013-7-28,80,64,47,55,48,45,93,62,30,30.09,30.05,30.01,10,10,10,13,3,21,0.00,1,,218
2013-7-29,67,64,60,64,59,54,97,80,63,30.07,30.04,30.00,10,7,1,15,8,18,0.72,8,Rain,129
2013-7-30,79,72,64,66,64,64,100,81,62,30.12,30.06,30.02,10,6,1,17,6,18,0.00,8,,23
2013-7-31,87,74,61,67,64,60,100,74,48,30.16,30.10,30.04,10,8,5,8,2,10,0.00,1,,271